Terminal Aerodrome Forecast
Issued by NWS Charleston, WV

Current Version | Previous Version | Graphics & Text | Print | Product List | Glossary On
Versions: 1 2 3 4 5 6 7 8 9 10 11 12 13 14 15 16 17 18 19 20 21 22 23 24
382
FTUS41 KRLX 022351
TAFCRW
TAF
KCRW 022351Z 0300/0324 VRB03KT 6SM -SHRA BR SCT001 BKN050
      TEMPO 0300/0304 3SM -SHRA BR SCT001 BKN015
     FM030400 VRB03KT 3SM SHRA BR OVC015
     FM030800 00000KT 6SM BR OVC010
     FM031300 VRB03KT P6SM BKN008
     FM031600 28004KT P6SM BKN015
     FM031700 28005KT P6SM BKN025
     FM032100 29006KT P6SM BKN035=

USA.gov is the U.S. government's official web portal to all federal, state and local government web resources and services.